createdAt,value
2019-05-13T00:00:46.373Z,8.06
2019-05-13T00:01:46.382Z,7.99
2019-05-13T00:02:46.220Z,8.00
2019-05-13T00:03:46.185Z,7.95
2019-05-13T00:04:46.030Z,7.92
2019-05-13T00:05:45.990Z,7.89
2019-05-13T00:06:53.581Z,7.94
2019-05-13T00:07:45.800Z,7.96
2019-05-13T00:08:45.692Z,7.96
2019-05-13T00:09:45.814Z,8.04
2019-05-13T00:10:45.522Z,7.95
2019-05-13T00:11:45.438Z,7.95
2019-05-13T00:12:45.483Z,7.91
2019-05-13T00:13:45.274Z,7.91
2019-05-13T00:14:45.224Z,7.88
2019-05-13T00:15:45.247Z,7.81
2019-05-13T00:16:45.029Z,7.73
2019-05-13T00:17:44.941Z,7.84
2019-05-13T00:18:45.056Z,7.76
2019-05-13T00:19:44.758Z,7.81
2019-05-13T00:20:44.677Z,7.86
2019-05-13T00:21:44.687Z,7.73
2019-05-13T00:22:45.028Z,7.71
2019-05-13T00:23:44.422Z,7.71
2019-05-13T00:24:44.489Z,7.66
2019-05-13T00:25:44.658Z,7.66
2019-05-13T00:26:44.604Z,7.69
2019-05-13T00:27:44.654Z,7.71
2019-05-13T00:28:44.368Z,7.66
2019-05-13T00:29:44.458Z,7.74
2019-05-13T00:30:44.486Z,7.67
2019-05-13T00:31:43.980Z,7.55
2019-05-13T00:32:44.517Z,7.51
2019-05-13T00:33:44.436Z,7.54
2019-05-13T00:34:44.600Z,7.45
2019-05-13T00:35:44.321Z,7.33
2019-05-13T00:36:44.511Z,7.37
2019-05-13T00:37:44.393Z,7.32
2019-05-13T00:38:44.014Z,7.26
2019-05-13T00:39:44.220Z,7.21
2019-05-13T00:40:44.277Z,7.26
2019-05-13T00:41:44.275Z,7.15
2019-05-13T00:42:44.080Z,7.15
2019-05-13T00:43:44.412Z,7.18
2019-05-13T00:44:44.381Z,7.16
2019-05-13T00:45:44.321Z,7.15
2019-05-13T00:46:44.123Z,7.08
2019-05-13T00:47:43.687Z,7.15
2019-05-13T00:48:43.974Z,7.15
2019-05-13T00:49:43.664Z,7.16
2019-05-13T00:50:44.185Z,7.30
2019-05-13T00:51:44.234Z,7.23
2019-05-13T00:52:44.578Z,7.26
2019-05-13T00:53:44.058Z,7.32
2019-05-13T00:54:44.023Z,7.24
2019-05-13T00:55:41.704Z,7.24
2019-05-13T00:56:43.634Z,7.32
2019-05-13T00:57:43.652Z,7.24
2019-05-13T00:58:43.539Z,7.30
2019-05-13T00:59:41.360Z,7.24
2019-05-13T01:00:44.201Z,7.34
2019-05-13T01:01:41.190Z,7.37
2019-05-13T01:02:41.121Z,7.34
2019-05-13T01:03:41.053Z,7.29
2019-05-13T01:04:40.943Z,7.33
2019-05-13T01:05:40.855Z,7.39
2019-05-13T01:06:43.532Z,7.39
2019-05-13T01:07:40.700Z,7.33
2019-05-13T01:08:40.675Z,7.32
2019-05-13T01:09:40.510Z,7.34
2019-05-13T01:10:40.484Z,7.37
2019-05-13T01:11:40.346Z,7.29
2019-05-13T01:12:40.329Z,7.33
2019-05-13T01:13:40.166Z,7.34
2019-05-13T01:14:40.312Z,7.23
2019-05-13T01:15:40.000Z,7.21
2019-05-13T01:16:40.115Z,7.29
2019-05-13T01:17:39.841Z,7.33
2019-05-13T01:18:39.922Z,7.29
2019-05-13T01:19:39.665Z,7.18
2019-05-13T01:20:39.731Z,7.19
2019-05-13T01:21:39.487Z,7.19
2019-05-13T01:22:39.431Z,7.29
2019-05-13T01:23:39.329Z,7.37
2019-05-13T01:24:39.354Z,7.23
2019-05-13T01:25:39.148Z,7.29
2019-05-13T01:26:39.060Z,7.26
2019-05-13T01:27:39.224Z,7.19
2019-05-13T01:28:38.891Z,7.18
2019-05-13T01:29:38.816Z,7.30
2019-05-13T01:30:38.773Z,7.27
2019-05-13T01:31:38.639Z,7.24
2019-05-13T01:32:38.611Z,7.24
2019-05-13T01:33:38.476Z,7.19
2019-05-13T01:34:38.595Z,7.19
2019-05-13T01:35:38.298Z,7.15
2019-05-13T01:36:38.213Z,7.12
2019-05-13T01:37:42.533Z,7.18
2019-05-13T01:38:38.038Z,7.15
2019-05-13T01:39:37.956Z,7.09
2019-05-13T01:40:38.021Z,7.08
2019-05-13T01:41:37.785Z,7.00
2019-05-13T01:42:37.727Z,7.07
2019-05-13T01:43:37.629Z,6.93
2019-05-13T01:44:37.528Z,6.90
2019-05-13T01:45:37.446Z,6.94
2019-05-13T01:46:37.447Z,6.99
2019-05-13T01:47:37.269Z,6.93
2019-05-13T01:48:37.287Z,6.83
2019-05-13T01:49:37.103Z,6.86
2019-05-13T01:50:37.266Z,6.93
2019-05-13T01:51:36.930Z,6.93
2019-05-13T01:52:36.871Z,7.04
2019-05-13T01:53:36.770Z,6.94
2019-05-13T01:54:36.888Z,6.90
2019-05-13T01:55:36.587Z,6.89
2019-05-13T01:56:36.691Z,6.99
2019-05-13T01:57:36.416Z,7.00
2019-05-13T01:58:36.541Z,7.00
2019-05-13T01:59:36.244Z,7.05
2019-05-13T02:00:36.309Z,6.96
2019-05-13T02:01:36.078Z,6.94
2019-05-13T02:02:36.001Z,7.04
2019-05-13T02:03:35.953Z,7.05
2019-05-13T02:04:35.823Z,7.01
2019-05-13T02:05:35.733Z,7.04
2019-05-13T02:06:35.760Z,6.94
2019-05-13T02:07:35.564Z,6.83
2019-05-13T02:08:35.490Z,6.86
2019-05-13T02:09:35.549Z,6.86
2019-05-13T02:10:35.313Z,6.79
2019-05-13T02:11:35.221Z,6.81
2019-05-13T02:12:35.162Z,6.94
2019-05-13T02:13:35.076Z,6.81
2019-05-13T02:14:35.176Z,6.78
2019-05-13T02:15:34.877Z,6.76
2019-05-13T02:16:35.009Z,6.71
2019-05-13T02:17:34.707Z,6.68
2019-05-13T02:18:34.823Z,6.61
2019-05-13T02:19:34.544Z,6.58
2019-05-13T02:20:34.595Z,6.55
2019-05-13T02:21:34.363Z,6.63
2019-05-13T02:22:34.283Z,6.53
2019-05-13T02:23:34.240Z,6.54
2019-05-13T02:24:34.430Z,6.53
2019-05-13T02:25:34.164Z,6.55
2019-05-13T02:26:34.514Z,6.51
2019-05-13T02:27:34.498Z,6.51
2019-05-13T02:28:33.782Z,6.48
2019-05-13T02:29:34.449Z,6.39
2019-05-13T02:30:34.880Z,6.38
2019-05-13T02:31:45.255Z,6.28
2019-05-13T02:32:33.446Z,6.21
2019-05-13T02:33:34.159Z,6.27
2019-05-13T02:34:33.465Z,6.19
2019-05-13T02:35:33.174Z,6.19
2019-05-13T02:36:33.284Z,6.20
2019-05-13T02:37:34.267Z,6.25
2019-05-13T02:38:35.331Z,6.21
2019-05-13T02:39:33.134Z,6.32
2019-05-13T02:40:32.892Z,6.25
2019-05-13T02:41:34.183Z,6.19
2019-05-13T02:42:32.968Z,6.13
2019-05-13T02:43:33.444Z,6.13
2019-05-13T02:44:33.253Z,6.02
2019-05-13T02:45:33.300Z,5.95
2019-05-13T02:46:33.807Z,5.90
2019-05-13T02:47:33.107Z,5.92
2019-05-13T02:48:33.174Z,5.93
2019-05-13T02:49:32.662Z,5.84
2019-05-13T02:50:33.775Z,5.74
2019-05-13T02:51:32.798Z,5.62
2019-05-13T02:52:33.409Z,5.56
2019-05-13T02:53:33.472Z,5.52
2019-05-13T02:54:34.080Z,5.47
2019-05-13T02:55:32.855Z,5.42
2019-05-13T02:56:33.029Z,5.38
2019-05-13T02:57:32.596Z,5.30
2019-05-13T02:58:33.294Z,5.29
2019-05-13T02:59:33.539Z,5.27
2019-05-13T03:00:32.901Z,5.24
2019-05-13T03:01:33.226Z,5.14
2019-05-13T03:02:32.738Z,5.15
2019-05-13T03:03:32.768Z,5.15
2019-05-13T03:04:32.654Z,5.05
2019-05-13T03:05:32.035Z,5.01
2019-05-13T03:06:33.200Z,5.01
2019-05-13T03:07:33.333Z,4.97
2019-05-13T03:08:41.060Z,4.96
2019-05-13T03:09:32.511Z,4.94
2019-05-13T03:10:32.930Z,4.94
2019-05-13T03:11:32.868Z,4.90
2019-05-13T03:12:32.201Z,4.86
2019-05-13T03:13:32.576Z,4.87
2019-05-13T03:14:32.248Z,4.87
2019-05-13T03:15:32.735Z,4.80
2019-05-13T03:16:32.379Z,4.87
2019-05-13T03:17:32.377Z,4.84
2019-05-13T03:18:33.121Z,4.72
2019-05-13T03:19:32.898Z,4.69
2019-05-13T03:20:33.010Z,4.71
2019-05-13T03:21:32.438Z,4.68
2019-05-13T03:22:31.844Z,4.62
2019-05-13T03:23:32.431Z,4.64
2019-05-13T03:24:32.706Z,4.53
2019-05-13T03:25:28.877Z,4.59
2019-05-13T03:26:32.050Z,4.51
2019-05-13T03:27:28.718Z,4.47
2019-05-13T03:28:28.619Z,4.54
2019-05-13T03:29:28.738Z,4.50
2019-05-13T03:30:28.460Z,4.44
2019-05-13T03:31:28.397Z,4.36
2019-05-13T03:32:35.639Z,4.46
2019-05-13T03:33:28.809Z,4.42
2019-05-13T03:34:28.122Z,4.46
2019-05-13T03:35:28.351Z,4.38
2019-05-13T03:36:27.941Z,4.39
2019-05-13T03:37:27.855Z,4.39
2019-05-13T03:38:27.949Z,4.31
2019-05-13T03:39:27.686Z,4.26
2019-05-13T03:40:27.579Z,4.25
2019-05-13T03:41:27.560Z,4.25
2019-05-13T03:42:27.409Z,4.26
2019-05-13T03:43:27.362Z,4.17
2019-05-13T03:44:27.249Z,4.21
2019-05-13T03:45:27.171Z,4.20
2019-05-13T03:46:27.070Z,4.14
2019-05-13T03:47:27.183Z,4.18
2019-05-13T03:48:26.904Z,4.11
2019-05-13T03:49:27.036Z,4.21
2019-05-13T03:50:30.535Z,4.17
2019-05-13T03:51:26.801Z,4.11
2019-05-13T03:52:26.545Z,4.11
2019-05-13T03:53:26.460Z,4.02
2019-05-13T03:54:26.450Z,4.13
2019-05-13T03:55:26.287Z,4.11
2019-05-13T03:56:26.208Z,4.08
2019-05-13T03:57:26.230Z,4.10
2019-05-13T03:58:26.030Z,4.02
2019-05-13T03:59:25.959Z,4.06
2019-05-13T04:00:26.041Z,4.00
2019-05-13T04:01:25.772Z,3.99
2019-05-13T04:02:25.693Z,4.00
2019-05-13T04:03:25.685Z,4.04
2019-05-13T04:04:25.521Z,4.00
2019-05-13T04:05:25.710Z,4.02
2019-05-13T04:06:25.345Z,4.00
2019-05-13T04:07:25.473Z,4.02
2019-05-13T04:08:25.169Z,4.07
2019-05-13T04:09:31.196Z,4.00
2019-05-13T04:10:25.030Z,3.99
2019-05-13T04:11:25.089Z,4.06
2019-05-13T04:12:28.376Z,3.99
2019-05-13T04:13:24.901Z,4.06
2019-05-13T04:14:24.662Z,4.06
2019-05-13T04:15:24.705Z,4.17
2019-05-13T04:16:24.470Z,4.13
2019-05-13T04:17:24.585Z,4.11
2019-05-13T04:18:24.316Z,4.20
2019-05-13T04:19:24.226Z,4.13
2019-05-13T04:20:24.125Z,4.16
2019-05-13T04:21:24.131Z,4.28
2019-05-13T04:22:23.953Z,4.25
2019-05-13T04:23:23.941Z,4.29
2019-05-13T04:24:23.810Z,4.35
2019-05-13T04:25:23.796Z,4.35
2019-05-13T04:26:24.151Z,4.39
2019-05-13T04:27:23.690Z,4.46
2019-05-13T04:28:23.565Z,4.54
2019-05-13T04:29:23.682Z,4.50
2019-05-13T04:30:23.276Z,4.62
2019-05-13T04:31:23.259Z,4.68
2019-05-13T04:32:23.478Z,4.86
2019-05-13T04:33:23.349Z,5.04
2019-05-13T04:34:23.231Z,5.06
2019-05-13T04:35:23.718Z,5.14
2019-05-13T04:36:23.664Z,5.29
2019-05-13T04:37:22.664Z,5.38
2019-05-13T04:38:23.020Z,5.48
2019-05-13T04:39:40.383Z,5.60
2019-05-13T04:40:23.408Z,5.65
2019-05-13T04:41:23.192Z,5.85
2019-05-13T04:42:23.275Z,5.84
2019-05-13T04:43:23.590Z,5.99
2019-05-13T04:44:24.045Z,6.13
2019-05-13T04:45:23.815Z,6.20
2019-05-13T04:46:23.920Z,6.20
2019-05-13T04:47:22.944Z,6.33
2019-05-13T04:48:22.811Z,6.28
2019-05-13T04:49:23.263Z,6.30
2019-05-13T04:50:22.618Z,6.27
2019-05-13T04:51:22.603Z,6.38
2019-05-13T04:52:22.225Z,6.45
2019-05-13T04:53:22.597Z,6.43
2019-05-13T04:54:22.518Z,6.38
2019-05-13T04:55:22.916Z,6.39
2019-05-13T04:56:22.337Z,6.40
2019-05-13T04:57:22.717Z,6.39
2019-05-13T04:58:23.546Z,6.50
2019-05-13T04:59:22.695Z,6.50
2019-05-13T05:00:23.457Z,6.55
2019-05-13T05:01:23.758Z,6.71
2019-05-13T05:02:22.365Z,6.71
2019-05-13T05:03:22.878Z,6.78
2019-05-13T05:04:28.766Z,6.87
2019-05-13T05:05:22.613Z,6.90
2019-05-13T05:06:22.655Z,7.08
2019-05-13T05:07:22.240Z,7.23
2019-05-13T05:08:22.450Z,7.39
2019-05-13T05:09:22.461Z,7.44
2019-05-13T05:10:30.329Z,7.52
2019-05-13T05:11:22.310Z,7.62
2019-05-13T05:12:19.700Z,7.66
2019-05-13T05:13:22.067Z,7.71
2019-05-13T05:14:22.273Z,7.69
2019-05-13T05:15:19.479Z,7.81
2019-05-13T05:16:21.800Z,7.89
2019-05-13T05:17:22.305Z,7.89
2019-05-13T05:18:21.972Z,7.96
2019-05-13T05:19:19.234Z,8.04
2019-05-13T05:20:19.065Z,7.95
2019-05-13T05:21:18.966Z,8.14
2019-05-13T05:22:18.947Z,8.20
2019-05-13T05:23:21.270Z,8.28
2019-05-13T05:24:18.706Z,8.29
2019-05-13T05:25:18.688Z,8.36
2019-05-13T05:26:18.537Z,8.42
2019-05-13T05:27:18.459Z,8.47
2019-05-13T05:28:21.619Z,8.52
2019-05-13T05:29:18.287Z,8.54
2019-05-13T05:30:18.237Z,8.58
2019-05-13T05:31:18.193Z,8.64
2019-05-13T05:32:18.042Z,8.73
2019-05-13T05:33:17.965Z,8.85
2019-05-13T05:34:17.902Z,8.91
2019-05-13T05:35:17.792Z,8.98
2019-05-13T05:36:17.743Z,9.03
2019-05-13T05:37:17.628Z,9.30
2019-05-13T05:38:17.564Z,9.26
2019-05-13T05:39:17.474Z,9.37
2019-05-13T05:40:30.463Z,9.42
2019-05-13T05:41:17.314Z,9.49
2019-05-13T05:42:17.214Z,9.44
2019-05-13T05:43:17.148Z,9.44
2019-05-13T05:44:17.047Z,9.53
2019-05-13T05:45:16.973Z,9.56
2019-05-13T05:46:17.045Z,9.62
2019-05-13T05:47:16.803Z,9.49
2019-05-13T05:48:16.722Z,9.44
2019-05-13T05:49:16.827Z,9.50
2019-05-13T05:50:16.554Z,9.56
2019-05-13T05:51:16.484Z,9.63
2019-05-13T05:52:16.438Z,9.67
2019-05-13T05:53:16.307Z,9.70
2019-05-13T05:54:16.233Z,9.91
2019-05-13T05:55:16.258Z,9.83
2019-05-13T05:56:16.074Z,9.88
2019-05-13T05:57:15.979Z,9.89
2019-05-13T05:58:16.068Z,10.01
2019-05-13T05:59:15.815Z,10.01
2019-05-13T06:00:15.891Z,10.06
2019-05-13T06:01:15.671Z,10.10
2019-05-13T06:02:15.687Z,10.13
2019-05-13T06:03:15.488Z,10.09
2019-05-13T06:04:15.500Z,9.98
2019-05-13T06:05:15.327Z,10.09
2019-05-13T06:06:15.351Z,9.99
2019-05-13T06:07:15.163Z,10.06
2019-05-13T06:08:17.717Z,10.09
2019-05-13T06:09:15.006Z,9.96
2019-05-13T06:10:15.126Z,9.81
2019-05-13T06:11:14.852Z,9.68
2019-05-13T06:12:14.935Z,9.70
2019-05-13T06:13:14.677Z,9.63
2019-05-13T06:14:14.698Z,9.55
2019-05-13T06:15:14.505Z,9.75
2019-05-13T06:16:14.549Z,9.58
2019-05-13T06:17:14.353Z,9.60
2019-05-13T06:18:14.388Z,9.62
2019-05-13T06:19:17.719Z,9.67
2019-05-13T06:20:14.315Z,9.48
2019-05-13T06:21:14.034Z,9.70
2019-05-13T06:22:13.995Z,9.70
2019-05-13T06:23:13.860Z,9.78
2019-05-13T06:24:13.777Z,9.96
2019-05-13T06:25:14.802Z,9.96
2019-05-13T06:26:13.643Z,10.04
2019-05-13T06:27:13.536Z,10.31
2019-05-13T06:28:13.608Z,10.09
2019-05-13T06:29:13.370Z,10.36
2019-05-13T06:30:13.410Z,10.60
2019-05-13T06:31:13.218Z,10.73
2019-05-13T06:32:22.060Z,10.90
2019-05-13T06:33:13.040Z,11.24
2019-05-13T06:34:12.960Z,11.13
2019-05-13T06:35:13.041Z,11.13
2019-05-13T06:36:12.813Z,11.11
2019-05-13T06:37:12.719Z,11.26
2019-05-13T06:38:12.854Z,11.12
2019-05-13T06:39:12.557Z,11.19
2019-05-13T06:40:12.664Z,10.78
2019-05-13T06:41:14.776Z,10.88
2019-05-13T06:42:12.471Z,10.91
2019-05-13T06:43:12.233Z,10.90
2019-05-13T06:44:12.323Z,10.76
2019-05-13T06:45:12.568Z,10.78
2019-05-13T06:46:12.402Z,10.91
2019-05-13T06:47:11.930Z,10.94
2019-05-13T06:48:12.106Z,10.93
2019-05-13T06:49:12.282Z,11.23
2019-05-13T06:50:12.054Z,11.36
2019-05-13T06:51:11.736Z,11.31
2019-05-13T06:52:11.993Z,10.90
2019-05-13T06:53:12.683Z,10.91
2019-05-13T06:54:11.495Z,10.98
2019-05-13T06:55:11.711Z,11.11
2019-05-13T06:56:12.146Z,11.16
2019-05-13T06:57:13.492Z,10.91
2019-05-13T06:58:11.541Z,10.86
2019-05-13T06:59:11.853Z,11.21
2019-05-13T07:00:12.236Z,11.42
2019-05-13T07:01:11.626Z,11.20
2019-05-13T07:02:12.466Z,11.09
2019-05-13T07:03:12.664Z,11.31
2019-05-13T07:04:11.648Z,11.57
2019-05-13T07:05:12.043Z,11.30
2019-05-13T07:06:12.306Z,11.41
2019-05-13T07:07:16.661Z,11.48
2019-05-13T07:08:12.002Z,11.36
2019-05-13T07:09:11.947Z,11.13
2019-05-13T07:10:12.491Z,11.27
2019-05-13T07:11:18.660Z,11.64
2019-05-13T07:12:11.341Z,12.03
2019-05-13T07:13:11.462Z,12.05
2019-05-13T07:14:12.465Z,12.16
2019-05-13T07:15:11.577Z,12.25
2019-05-13T07:16:11.781Z,12.25
2019-05-13T07:17:12.122Z,12.30
2019-05-13T07:18:11.688Z,12.62
2019-05-13T07:19:11.546Z,12.56
2019-05-13T07:20:11.612Z,12.69
2019-05-13T07:21:09.189Z,12.56
2019-05-13T07:22:11.487Z,12.69
2019-05-13T07:23:09.028Z,12.62
2019-05-13T07:24:09.065Z,12.87
2019-05-13T07:25:11.266Z,12.94
2019-05-13T07:26:08.792Z,12.85
2019-05-13T07:27:08.906Z,12.94
2019-05-13T07:28:08.631Z,12.70
2019-05-13T07:29:08.970Z,12.81
2019-05-13T07:30:08.492Z,13.28
2019-05-13T07:31:08.391Z,13.53
2019-05-13T07:32:08.346Z,13.81
2019-05-13T07:33:08.301Z,13.24
2019-05-13T07:34:08.154Z,13.17
2019-05-13T07:35:08.109Z,12.69
2019-05-13T07:36:07.996Z,12.54
2019-05-13T07:37:07.950Z,12.67
2019-05-13T07:38:07.842Z,12.84
2019-05-13T07:39:07.761Z,12.84
2019-05-13T07:40:07.735Z,12.59
2019-05-13T07:41:07.599Z,12.56
2019-05-13T07:42:07.544Z,12.16
2019-05-13T07:43:07.544Z,12.33
2019-05-13T07:44:07.363Z,12.38
2019-05-13T07:45:07.356Z,12.61
2019-05-13T07:46:07.210Z,12.79
2019-05-13T07:47:07.222Z,12.91
2019-05-13T07:48:19.464Z,13.25
2019-05-13T07:49:06.970Z,13.39
2019-05-13T07:50:06.980Z,13.46
2019-05-13T07:51:06.813Z,12.49
2019-05-13T07:52:06.753Z,12.80
2019-05-13T07:53:06.798Z,13.29
2019-05-13T07:54:06.584Z,13.16
2019-05-13T07:55:06.602Z,13.53
2019-05-13T07:56:06.425Z,13.73
2019-05-13T07:57:06.446Z,13.91
2019-05-13T07:58:06.277Z,13.71
2019-05-13T07:59:07.205Z,13.76
2019-05-13T08:00:06.118Z,13.98
2019-05-13T08:01:06.246Z,14.44
2019-05-13T08:02:05.987Z,14.38
2019-05-13T08:03:06.042Z,14.01
2019-05-13T08:04:05.820Z,13.57
2019-05-13T08:05:05.850Z,13.66
2019-05-13T08:06:05.659Z,13.50
2019-05-13T08:07:05.657Z,13.73
2019-05-13T08:08:05.510Z,13.98
2019-05-13T08:09:05.471Z,14.16
2019-05-13T08:10:05.354Z,14.41
2019-05-13T08:11:05.481Z,14.34
2019-05-13T08:12:10.449Z,14.57
2019-05-13T08:13:05.128Z,13.73
2019-05-13T08:14:05.093Z,13.93
2019-05-13T08:15:04.961Z,13.84
2019-05-13T08:16:04.917Z,14.23
2019-05-13T08:17:04.910Z,14.23
2019-05-13T08:18:04.752Z,14.42
2019-05-13T08:19:04.660Z,14.56
2019-05-13T08:20:04.718Z,14.80
2019-05-13T08:21:04.509Z,15.34
2019-05-13T08:22:04.529Z,15.13
2019-05-13T08:23:04.378Z,15.15
2019-05-13T08:24:04.334Z,14.71
2019-05-13T08:25:04.198Z,15.05
2019-05-13T08:26:04.146Z,15.30
2019-05-13T08:27:04.048Z,15.51
2019-05-13T08:28:04.200Z,15.51
2019-05-13T08:29:05.973Z,15.81
2019-05-13T08:30:03.968Z,15.92
2019-05-13T08:31:03.749Z,15.34
2019-05-13T08:32:03.775Z,15.41
2019-05-13T08:33:03.612Z,15.68
2019-05-13T08:34:03.610Z,15.35
2019-05-13T08:35:09.051Z,15.25
2019-05-13T08:36:03.391Z,15.07
2019-05-13T08:37:03.472Z,15.05
2019-05-13T08:38:03.331Z,14.95
2019-05-13T08:39:03.150Z,14.75
2019-05-13T08:40:03.077Z,15.05
2019-05-13T08:41:03.016Z,15.51
2019-05-13T08:42:15.198Z,16.03
2019-05-13T08:43:02.872Z,16.07
2019-05-13T08:44:02.848Z,15.98
2019-05-13T08:45:02.705Z,15.81
2019-05-13T08:46:02.639Z,16.14
2019-05-13T08:47:03.296Z,16.41
2019-05-13T08:48:03.503Z,15.51
2019-05-13T08:49:03.833Z,15.33
2019-05-13T08:50:04.458Z,15.67
2019-05-13T08:51:03.071Z,15.89
2019-05-13T08:52:02.323Z,15.95
2019-05-13T08:53:02.113Z,15.73
2019-05-13T08:54:02.549Z,15.77
2019-05-13T08:55:02.178Z,16.06
2019-05-13T08:56:02.123Z,16.25
2019-05-13T08:57:02.782Z,16.47
2019-05-13T08:58:02.275Z,16.57
2019-05-13T08:59:01.664Z,15.84
2019-05-13T09:00:05.219Z,15.96
2019-05-13T09:01:02.446Z,16.08
2019-05-13T09:02:02.908Z,16.06
2019-05-13T09:03:02.889Z,16.32
2019-05-13T09:04:02.353Z,15.70
2019-05-13T09:05:02.341Z,15.85
2019-05-13T09:06:02.773Z,16.18
2019-05-13T09:07:02.212Z,16.67
2019-05-13T09:08:01.384Z,16.96
2019-05-13T09:09:02.388Z,16.40
2019-05-13T09:10:01.766Z,15.73
2019-05-13T09:11:01.575Z,15.23
2019-05-13T09:12:02.389Z,15.22
2019-05-13T09:13:01.849Z,14.61
2019-05-13T09:14:02.268Z,15.00
2019-05-13T09:15:03.173Z,15.03
2019-05-13T09:16:02.412Z,15.37
2019-05-13T09:17:01.886Z,15.19
2019-05-13T09:18:02.370Z,14.91
2019-05-13T09:19:03.662Z,14.90
2019-05-13T09:20:02.552Z,14.93
2019-05-13T09:21:02.555Z,14.95
2019-05-13T09:22:03.099Z,15.09
2019-05-13T09:23:01.923Z,15.55
2019-05-13T09:24:01.963Z,15.91
2019-05-13T09:25:02.064Z,16.14
2019-05-13T09:26:02.325Z,16.26
2019-05-13T09:27:01.719Z,16.44
2019-05-13T09:28:02.422Z,16.48
2019-05-13T09:29:01.444Z,16.87
2019-05-13T09:29:59.342Z,17.18
2019-05-13T09:31:01.824Z,17.38
2019-05-13T09:31:59.191Z,16.51
2019-05-13T09:32:59.121Z,16.37
2019-05-13T09:34:01.351Z,16.47
2019-05-13T09:34:58.969Z,16.60
2019-05-13T09:35:58.895Z,16.17
2019-05-13T09:36:58.829Z,16.26
2019-05-13T09:37:58.781Z,16.73
2019-05-13T09:38:58.688Z,16.51
2019-05-13T09:39:58.601Z,16.23
2019-05-13T09:40:58.529Z,16.37
2019-05-13T09:41:58.469Z,16.08
2019-05-13T09:42:58.389Z,16.29
2019-05-13T09:43:58.329Z,16.48
2019-05-13T09:44:58.236Z,16.85
2019-05-13T09:45:58.174Z,16.69
2019-05-13T09:46:58.091Z,16.52
2019-05-13T09:47:58.034Z,16.48
2019-05-13T09:49:11.840Z,16.54
2019-05-13T09:49:57.875Z,16.57
2019-05-13T09:50:57.807Z,16.47
2019-05-13T09:51:57.734Z,15.93
2019-05-13T09:52:57.664Z,15.41
2019-05-13T09:53:57.611Z,15.41
2019-05-13T09:54:57.514Z,15.28
2019-05-13T09:55:57.445Z,15.53
2019-05-13T09:56:57.369Z,15.70
2019-05-13T09:57:57.298Z,15.95
2019-05-13T09:58:57.237Z,16.26
2019-05-13T09:59:57.144Z,15.95
2019-05-13T10:00:57.078Z,15.68
2019-05-13T10:01:56.998Z,15.44
2019-05-13T10:02:56.928Z,15.48
2019-05-13T10:03:58.176Z,15.76
2019-05-13T10:04:56.785Z,15.95
2019-05-13T10:05:56.743Z,16.34
2019-05-13T10:06:56.633Z,16.18
2019-05-13T10:07:56.567Z,16.10
2019-05-13T10:08:56.509Z,16.44
2019-05-13T10:09:56.418Z,16.37
2019-05-13T10:10:56.336Z,16.59
2019-05-13T10:11:57.270Z,16.33
2019-05-13T10:13:08.002Z,16.51
2019-05-13T10:13:56.128Z,16.81
2019-05-13T10:14:56.050Z,16.91
2019-05-13T10:15:55.964Z,16.91
2019-05-13T10:16:55.899Z,16.98
2019-05-13T10:17:55.830Z,17.10
2019-05-13T10:18:55.770Z,17.28
2019-05-13T10:19:55.673Z,16.98
2019-05-13T10:20:58.728Z,16.90
2019-05-13T10:21:55.539Z,16.59
2019-05-13T10:22:55.471Z,16.82
2019-05-13T10:23:58.653Z,17.02
2019-05-13T10:24:55.311Z,16.73
2019-05-13T10:25:55.240Z,16.96
2019-05-13T10:26:55.177Z,17.38
2019-05-13T10:27:55.087Z,17.73
2019-05-13T10:28:55.059Z,18.16
2019-05-13T10:29:54.954Z,17.58
2019-05-13T10:30:54.965Z,17.87
2019-05-13T10:31:54.804Z,18.31
2019-05-13T10:32:59.136Z,18.57
2019-05-13T10:33:54.655Z,18.47
2019-05-13T10:34:54.607Z,17.73
2019-05-13T10:35:54.516Z,17.74
2019-05-13T10:36:54.457Z,17.73
2019-05-13T10:37:54.373Z,17.45
2019-05-13T10:38:54.305Z,17.20
2019-05-13T10:39:54.249Z,17.30
2019-05-13T10:40:54.191Z,17.46
2019-05-13T10:41:54.094Z,17.02
2019-05-13T10:42:54.017Z,16.73
2019-05-13T10:43:53.943Z,16.87
2019-05-13T10:44:53.908Z,16.85
2019-05-13T10:45:53.802Z,17.15
2019-05-13T10:46:53.737Z,17.40
2019-05-13T10:47:53.664Z,17.60
2019-05-13T10:48:53.595Z,17.49
2019-05-13T10:49:53.531Z,17.18
2019-05-13T10:50:53.450Z,17.71
2019-05-13T10:51:53.383Z,17.40
2019-05-13T10:52:53.302Z,17.17
2019-05-13T10:53:58.998Z,17.58
2019-05-13T10:54:53.182Z,17.55
2019-05-13T10:55:53.083Z,17.74
2019-05-13T10:56:59.078Z,17.92
2019-05-13T10:57:53.016Z,17.98
2019-05-13T10:58:53.393Z,17.62
2019-05-13T10:59:52.962Z,17.79
2019-05-13T11:00:52.825Z,18.01
2019-05-13T11:01:52.661Z,18.47
2019-05-13T11:02:52.585Z,18.72
2019-05-13T11:03:52.669Z,18.96
2019-05-13T11:04:52.716Z,19.10
2019-05-13T11:05:52.872Z,19.01
2019-05-13T11:06:52.749Z,18.21
2019-05-13T11:07:52.230Z,18.02
2019-05-13T11:08:53.031Z,17.83
2019-05-13T11:09:52.923Z,17.32
2019-05-13T11:10:53.091Z,17.32
2019-05-13T11:11:52.871Z,17.63
2019-05-13T11:12:52.156Z,17.12
2019-05-13T11:13:58.322Z,17.18
2019-05-13T11:14:55.160Z,17.32
2019-05-13T11:15:57.367Z,17.24
2019-05-13T11:16:52.462Z,17.03
2019-05-13T11:17:51.968Z,16.95
2019-05-13T11:18:52.025Z,17.15
2019-05-13T11:19:51.610Z,17.62
2019-05-13T11:20:51.305Z,17.92
2019-05-13T11:21:51.390Z,18.09
2019-05-13T11:22:52.197Z,17.91
2019-05-13T11:23:51.855Z,18.10
2019-05-13T11:24:51.872Z,17.84
2019-05-13T11:25:52.275Z,18.21
2019-05-13T11:26:53.090Z,17.73
2019-05-13T11:27:52.396Z,17.96
2019-05-13T11:28:52.160Z,18.38
2019-05-13T11:29:52.320Z,18.44
2019-05-13T11:30:52.093Z,17.95
2019-05-13T11:31:52.432Z,17.54
2019-05-13T11:32:51.611Z,17.49
2019-05-13T11:33:51.982Z,17.74
2019-05-13T11:34:52.971Z,17.99
2019-05-13T11:35:52.360Z,18.51
2019-05-13T11:36:53.189Z,18.32
2019-05-13T11:37:52.223Z,18.26
2019-05-13T11:38:53.091Z,18.09
2019-05-13T11:39:51.685Z,18.32
2019-05-13T11:40:52.310Z,18.32
2019-05-13T11:41:49.813Z,18.11
2019-05-13T11:42:52.171Z,18.44
2019-05-13T11:44:11.046Z,18.17
2019-05-13T11:44:52.735Z,17.95
2019-05-13T11:45:50.897Z,17.32
2019-05-13T11:46:52.411Z,17.63
2019-05-13T11:47:51.966Z,17.39
2019-05-13T11:48:51.641Z,17.51
2019-05-13T11:49:51.349Z,17.49
2019-05-13T11:50:51.430Z,17.65
2019-05-13T11:51:51.741Z,17.91
2019-05-13T11:52:52.159Z,17.77
2019-05-13T11:53:48.991Z,17.95
2019-05-13T11:54:48.904Z,18.31
2019-05-13T11:55:52.027Z,18.26
2019-05-13T11:56:52.187Z,18.47
2019-05-13T11:57:48.672Z,18.59
2019-05-13T11:58:48.626Z,18.41
2019-05-13T11:59:48.599Z,18.54
2019-05-13T12:00:48.463Z,18.04
2019-05-13T12:01:48.386Z,17.95
2019-05-13T12:02:52.016Z,18.28
2019-05-13T12:03:48.257Z,18.29
2019-05-13T12:04:48.194Z,17.91
2019-05-13T12:05:48.106Z,18.07
2019-05-13T12:06:50.238Z,18.31
2019-05-13T12:07:47.963Z,17.91
2019-05-13T12:08:52.046Z,17.96
2019-05-13T12:09:47.832Z,18.39
2019-05-13T12:10:47.754Z,18.04
2019-05-13T12:11:47.679Z,17.43
2019-05-13T12:12:47.613Z,17.68
2019-05-13T12:13:47.547Z,17.94
2019-05-13T12:15:49.824Z,18.28
2019-05-13T12:16:47.410Z,18.60
2019-05-13T12:17:47.274Z,18.99
2019-05-13T12:18:47.219Z,18.90
2019-05-13T12:19:47.108Z,18.72
2019-05-13T12:20:47.054Z,18.66
2019-05-13T12:21:47.116Z,18.53
2019-05-13T12:22:46.892Z,18.46
2019-05-13T12:23:46.821Z,18.44
2019-05-13T12:24:46.847Z,18.13
2019-05-13T12:25:46.704Z,17.94
2019-05-13T12:26:55.669Z,18.17
2019-05-13T12:27:46.578Z,18.26
2019-05-13T12:28:46.569Z,18.53
2019-05-13T12:29:46.402Z,18.59
2019-05-13T12:30:46.421Z,18.62
2019-05-13T12:31:46.264Z,18.05
2019-05-13T12:32:46.306Z,18.07
2019-05-13T12:33:46.115Z,17.70
2019-05-13T12:34:46.224Z,17.70
2019-05-13T12:35:46.043Z,17.96
2019-05-13T12:36:45.897Z,17.89
2019-05-13T12:37:45.831Z,18.31
2019-05-13T12:38:45.822Z,18.71
2019-05-13T12:39:45.683Z,18.84
2019-05-13T12:40:45.626Z,19.15
2019-05-13T12:41:46.559Z,19.45
2019-05-13T12:42:47.263Z,19.46
2019-05-13T12:43:45.453Z,19.47
2019-05-13T12:45:00.538Z,19.17
2019-05-13T12:45:45.287Z,19.13
2019-05-13T12:46:50.156Z,19.15
2019-05-13T12:47:45.195Z,19.13
2019-05-13T12:48:45.044Z,19.16
2019-05-13T12:49:45.007Z,18.96
2019-05-13T12:50:44.911Z,18.89
2019-05-13T12:51:44.835Z,18.75
2019-05-13T12:52:44.759Z,18.41
2019-05-13T12:53:44.826Z,18.62
2019-05-13T12:54:44.649Z,18.66
2019-05-13T12:55:51.843Z,18.76
2019-05-13T12:56:44.502Z,18.82
2019-05-13T12:57:44.481Z,18.99
2019-05-13T12:58:44.336Z,19.02
2019-05-13T12:59:44.268Z,18.62
2019-05-13T13:00:44.201Z,19.01
2019-05-13T13:01:44.263Z,18.68
2019-05-13T13:02:50.207Z,18.90
2019-05-13T13:03:44.074Z,18.38
2019-05-13T13:05:08.049Z,18.44